Time;durP1;ratioP1;P1;durP2;ratioP2;P2;SDS_P1;SDS_P2;PMS_P1;PMS_P2;Temp;Humidity;BMP_temperature;BMP_pressure;BME280_temperature;BME280_humidity;BME280_pressure;Samples;Min_cycle;Max_cycle;Signal;HPM_P1;HPM_P2
2021/08/13 00:01:14;;;;;;;7.60;5.13;;;19.40;1.00;;;28.50;57.51;98351.47;5000166;28;20229;-74
2021/08/13 00:03:41;;;;;;;8.60;5.40;;;19.40;1.00;;;28.60;57.69;98345.75;5007138;28;20233;-74
2021/08/13 00:06:08;;;;;;;10.00;5.50;;;19.50;1.00;;;28.45;58.54;98354.31;5010863;28;20261;-74
2021/08/13 00:08:36;;;;;;;9.67;5.47;;;19.40;1.00;;;28.50;58.27;98345.13;5006968;28;20214;-73
2021/08/13 00:11:03;;;;;;;6.40;5.30;;;19.40;1.00;;;28.47;58.41;98345.78;5001759;28;20223;-74
2021/08/13 00:13:30;;;;;;;9.77;5.40;;;19.40;1.00;;;28.50;58.68;98343.22;5007319;28;20207;-74
2021/08/13 00:15:57;;;;;;;5.37;4.63;;;19.40;1.00;;;28.36;59.13;98338.81;4993362;28;20303;-74
2021/08/13 00:18:24;;;;;;;9.03;5.40;;;19.30;1.00;;;28.41;58.98;98347.81;5005592;28;20207;-73
2021/08/13 00:20:51;;;;;;;6.03;4.93;;;19.20;1.00;;;28.49;58.85;98333.34;5007639;28;20312;-73
2021/08/13 00:23:18;;;;;;;8.67;5.20;;;19.20;1.00;;;28.33;59.69;98337.50;5006824;28;20238;-73
2021/08/13 00:25:47;;;;;;;8.60;5.20;;;19.20;1.00;;;28.28;60.48;98343.09;4998818;28;20695;-74
2021/08/13 00:28:13;;;;;;;9.17;4.90;;;19.10;1.00;;;28.26;60.36;98345.34;4993393;28;20211;-73
2021/08/13 00:30:40;;;;;;;9.63;5.00;;;19.10;1.00;;;28.36;59.37;98355.28;4991134;28;20238;-73
2021/08/13 00:33:07;;;;;;;7.40;5.00;;;19.00;1.00;;;28.28;59.80;98347.78;5007430;28;20317;-74
2021/08/13 00:35:34;;;;;;;8.43;5.30;;;19.00;1.00;;;28.33;59.63;98347.69;5005718;28;20690;-73
2021/08/13 00:38:01;;;;;;;8.67;5.30;;;19.00;1.00;;;28.16;60.64;98351.03;5010496;28;20560;-74
2021/08/13 00:40:28;;;;;;;7.17;5.20;;;19.00;1.00;;;28.23;60.82;98351.44;5007567;28;20905;-73
2021/08/13 00:42:57;;;;;;;8.70;5.40;;;19.10;1.00;;;28.35;59.74;98356.41;5008272;28;20210;-74
2021/08/13 00:45:24;;;;;;;8.47;4.93;;;19.00;1.00;;;28.23;60.54;98354.19;5009898;28;20203;-73
2021/08/13 00:47:50;;;;;;;7.07;5.27;;;18.90;1.00;;;28.25;60.16;98348.38;5010220;28;20239;-73
2021/08/13 00:50:17;;;;;;;9.07;5.67;;;18.90;1.00;;;28.19;61.05;98341.38;5006032;28;20215;-74
2021/08/13 00:52:45;;;;;;;8.03;5.70;;;18.90;1.00;;;28.03;61.89;98343.59;5007979;28;20218;-73
2021/08/13 00:55:12;;;;;;;7.43;5.30;;;18.90;1.00;;;28.05;62.17;98346.06;4997021;28;20211;-74
2021/08/13 00:57:39;;;;;;;9.63;5.43;;;18.80;1.00;;;27.98;61.70;98351.94;5009721;28;20214;-73
2021/08/13 01:00:09;;;;;;;9.43;6.17;;;18.80;1.00;;;27.77;63.34;98344.41;4999327;28;20207;-73
2021/08/13 01:02:36;;;;;;;9.73;5.70;;;18.70;1.00;;;27.69;64.11;98345.09;5006834;28;20699;-73
2021/08/13 01:05:04;;;;;;;7.80;4.97;;;18.70;1.00;;;27.90;62.75;98351.84;5010940;28;20587;-73
2021/08/13 01:07:30;;;;;;;6.20;4.93;;;18.70;1.00;;;27.94;62.24;98345.47;5009694;28;20208;-73
2021/08/13 01:09:57;;;;;;;8.93;5.17;;;18.70;1.00;;;28.15;60.67;98354.91;5008573;28;20590;-74
2021/08/13 01:12:31;;;;;;;10.83;5.23;;;18.60;1.00;;;27.99;61.73;98355.50;5012679;28;20235;-73
2021/08/13 01:15:05;;;;;;;9.97;6.50;;;18.60;1.00;;;28.04;61.63;98347.19;5007329;28;20210;-73
2021/08/13 01:17:41;;;;;;;9.20;5.60;;;18.40;1.00;;;28.02;61.27;98350.22;5011660;28;20206;-73
2021/08/13 01:20:13;;;;;;;7.43;5.80;;;18.60;1.00;;;28.04;60.83;98352.66;5012885;28;20218;-74
2021/08/13 01:22:47;;;;;;;8.70;5.77;;;18.60;1.00;;;28.03;61.56;98348.31;5012791;28;20210;-74
2021/08/13 01:25:19;;;;;;;8.53;5.97;;;18.60;1.00;;;28.02;60.41;98358.47;5014010;28;20227;-73
2021/08/13 01:27:49;;;;;;;7.10;5.10;;;18.60;1.00;;;27.74;62.53;98358.72;5007731;28;20203;-73
2021/08/13 01:30:19;;;;;;;7.90;5.50;;;18.70;1.00;;;28.08;60.53;98357.22;5013082;28;20214;-74
2021/08/13 01:32:51;;;;;;;7.83;5.57;;;18.70;1.00;;;28.17;59.36;98362.84;5012397;28;20207;-72
2021/08/13 01:35:24;;;;;;;7.57;5.20;;;18.70;1.00;;;28.22;58.69;98371.78;5012901;28;20230;-72
2021/08/13 01:37:54;;;;;;;9.13;5.27;;;18.70;1.00;;;28.19;58.68;98366.09;5010962;28;20226;-72
2021/08/13 01:40:23;;;;;;;7.23;5.63;;;18.60;1.00;;;28.13;59.54;98362.63;5010332;28;20214;-71
2021/08/13 01:42:52;;;;;;;9.50;5.57;;;18.60;1.00;;;28.13;59.90;98368.09;5013766;28;20217;-71
2021/08/13 01:45:24;;;;;;;7.40;5.30;;;18.60;1.00;;;27.92;61.75;98374.31;5015395;28;20603;-72
2021/08/13 01:47:54;;;;;;;9.97;6.07;;;18.50;1.00;;;27.73;61.73;98384.53;5012204;28;20671;-72
2021/08/13 01:50:22;;;;;;;9.00;5.53;;;18.50;1.00;;;27.90;61.11;98373.78;5005173;28;20211;-74
2021/08/13 01:52:51;;;;;;;8.57;6.13;;;18.50;1.00;;;27.63;60.81;98371.00;5011289;28;20306;-74
2021/08/13 01:55:19;;;;;;;7.47;5.77;;;18.50;1.00;;;27.85;61.46;98379.38;5013564;28;20568;-73
2021/08/13 01:57:46;;;;;;;8.23;5.70;;;18.50;1.00;;;28.12;59.45;98371.97;5013513;28;20207;-73
2021/08/13 02:00:17;;;;;;;7.77;6.33;;;18.50;1.00;;;28.16;59.24;98377.66;5009285;28;20203;-74
2021/08/13 02:02:45;;;;;;;8.00;5.53;;;18.40;1.00;;;28.15;59.17;98379.63;5006553;28;20199;-73
2021/08/13 02:05:18;;;;;;;11.57;6.30;;;18.50;1.00;;;28.25;57.55;98390.41;5012526;28;20219;-73
2021/08/13 02:07:45;;;;;;;11.50;6.70;;;18.40;1.00;;;28.09;59.04;98385.50;5007772;28;20203;-74
2021/08/13 02:10:13;;;;;;;9.70;5.77;;;18.50;1.00;;;27.77;60.00;98375.38;5006362;28;20570;-74
2021/08/13 02:12:40;;;;;;;8.40;5.47;;;18.50;1.00;;;27.68;61.46;98360.75;5011649;28;20234;-74
2021/08/13 02:15:10;;;;;;;7.83;6.07;;;18.60;1.00;;;28.10;59.30;98373.41;5013963;28;20801;-73
2021/08/13 02:17:43;;;;;;;6.93;5.73;;;18.60;1.00;;;28.07;59.35;98372.09;5011699;28;20215;-73
2021/08/13 02:20:16;;;;;;;9.37;5.93;;;18.60;1.00;;;28.13;58.83;98365.38;5001619;28;20295;-74
2021/08/13 02:22:43;;;;;;;8.10;5.67;;;18.70;1.00;;;27.88;60.17;98365.06;5008356;28;20210;-74
2021/08/13 02:25:11;;;;;;;8.77;5.53;;;18.70;1.00;;;27.59;61.26;98364.47;5005902;28;20226;-73
2021/08/13 02:27:39;;;;;;;8.77;6.33;;;18.70;1.00;;;28.05;59.23;98359.78;5025204;28;20202;-73
2021/08/13 02:30:09;;;;;;;8.27;5.17;;;18.80;1.00;;;28.17;58.62;98366.38;5015416;28;20295;-73
2021/08/13 02:32:37;;;;;;;8.70;5.97;;;18.80;1.00;;;28.20;58.73;98356.72;5013474;28;20227;-74
2021/08/13 02:35:05;;;;;;;11.50;5.57;;;;;;;28.24;58.46;98357.75;5006887;28;20206;-73
2021/08/13 02:37:38;;;;;;;8.53;5.87;;;;;;;28.19;58.53;98363.34;5011810;28;20222;-74
2021/08/13 02:40:07;;;;;;;7.50;5.80;;;;;;;28.18;59.27;98358.97;5014918;28;20217;-73
2021/08/13 02:42:39;;;;;;;7.73;5.83;;;;;;;28.02;60.66;98347.47;5007673;28;20238;-73
2021/08/13 02:45:08;;;;;;;8.33;5.90;;;;;;;27.92;60.48;98355.91;5017864;28;20555;-73
2021/08/13 02:47:35;;;;;;;7.73;5.90;;;;;;;27.93;60.81;98352.03;5013016;28;20234;-73
2021/08/13 02:50:05;;;;;;;9.33;5.73;;;;;;;28.16;59.61;98355.72;5006173;28;20203;-73
2021/08/13 02:52:41;;;;;;;7.40;5.77;;;;;;;28.24;58.62;98341.28;5010753;28;20237;-73
2021/08/13 02:55:09;;;;;;;9.27;5.77;;;;;;;28.31;58.57;98345.25;5015670;28;20546;-73
2021/08/13 02:57:38;;;;;;;8.77;5.67;;;;;;;28.31;58.30;98344.41;5012009;28;20286;-73
2021/08/13 03:00:07;;;;;;;9.03;6.03;;;;;;;28.35;58.29;98354.50;5012110;28;20215;-74
2021/08/13 03:02:35;;;;;;;7.93;5.70;;;;;;;28.21;59.06;98361.91;5011575;28;20228;-73
2021/08/13 03:05:03;;;;;;;9.27;6.00;;;;;;;28.11;59.36;98355.81;5023727;28;20226;-73
2021/08/13 03:07:32;;;;;;;8.67;5.90;;;;;;;-139.38;100.00;63230.50;5011405;28;20219;-73
2021/08/13 03:10:00;;;;;;;11.17;5.80;;;;;;;-139.38;100.00;63230.50;5008380;28;20200;-73
2021/08/13 03:12:27;;;;;;;9.20;6.00;;;;;;;28.51;59.11;98344.00;5010676;28;20326;-73
2021/08/13 03:14:55;;;;;;;7.83;6.37;;;;;;;28.63;58.13;98352.53;5007630;28;20204;-73
2021/08/13 03:17:23;;;;;;;10.23;5.77;;;;;;;28.59;58.10;98354.28;5005724;28;20211;-73
2021/08/13 03:19:51;;;;;;;11.27;6.60;;;;;;;28.65;57.61;98359.38;5006491;28;20277;-74
2021/08/13 03:22:20;;;;;;;8.77;5.60;;;;;;;28.60;58.19;98351.22;4995941;28;20591;-73
2021/08/13 03:24:49;;;;;;;7.27;5.53;;;;;;;28.53;59.30;98350.81;5011075;28;20227;-73
2021/08/13 03:27:18;;;;;;;7.53;6.23;;;;;;;28.63;58.48;98358.03;5007641;28;20219;-73
2021/08/13 03:29:45;;;;;;;7.37;5.30;;;;;;;28.64;58.46;98343.19;4999707;28;20216;-73
2021/08/13 03:32:13;;;;;;;8.93;5.63;;;;;;;28.56;58.85;98341.16;5006495;28;20237;-74
2021/08/13 03:34:40;;;;;;;8.43;6.03;;;;;;;27.82;62.97;98336.09;5014068;28;20209;-74
2021/08/13 03:37:08;;;;;;;12.27;6.40;;;;;;;28.25;60.69;98349.22;5015821;28;20218;-73
2021/08/13 03:39:35;;;;;;;9.00;6.07;;;;;;;28.47;60.24;98356.75;5011272;28;20207;-73
2021/08/13 03:42:04;;;;;;;7.80;5.70;;;;;;;28.48;60.53;98353.69;5008903;28;20234;-73
2021/08/13 03:44:31;;;;;;;8.23;6.10;;;;;;;28.38;60.90;98364.88;5012207;28;20714;-73
2021/08/13 03:46:58;;;;;;;8.17;5.70;;;;;;;28.38;60.89;98367.63;5011467;28;20213;-73
2021/08/13 03:49:26;;;;;;;7.37;5.63;;;;;;;28.53;59.73;98372.00;5010356;28;20207;-73
2021/08/13 03:51:56;;;;;;;9.30;5.70;;;;;;;28.65;58.88;98386.00;5008318;28;20230;-73
2021/08/13 03:54:24;;;;;;;10.20;6.87;;;;;;;28.66;58.92;98390.38;5015395;28;20202;-73
2021/08/13 03:56:51;;;;;;;9.97;6.90;;;;;;;28.36;60.84;98394.56;5011765;28;20216;-74
2021/08/13 03:59:19;;;;;;;8.93;6.10;;;;;;;28.06;61.38;98411.63;5013499;28;20222;-74
2021/08/13 04:01:47;;;;;;;10.53;6.13;;;;;;;28.00;62.30;98401.88;5011102;28;20240;-73
2021/08/13 04:04:14;;;;;;;8.87;5.67;;;;;;;28.43;60.46;98410.66;5007837;28;20227;-73
2021/08/13 04:06:41;;;;;;;8.93;6.33;;;;;;;28.52;59.37;98406.88;5010293;28;20203;-73
2021/08/13 04:09:08;;;;;;;8.80;6.53;;;;;;;27.79;62.74;98397.06;5009195;28;20656;-73
2021/08/13 04:11:36;;;;;;;11.10;6.23;;;;;;;27.99;61.42;98407.66;5009568;28;20243;-73
2021/08/13 04:14:04;;;;;;;11.00;6.80;;;;;;;28.58;58.73;98407.59;5018186;28;20214;-73
2021/08/13 04:16:33;;;;;;;15.67;6.30;;;;;;;28.95;56.57;98421.88;5012298;28;20226;-74
2021/08/13 04:19:00;;;;;;;10.77;6.97;;;;;;;28.89;56.55;98416.78;5005102;28;20214;-74
2021/08/13 04:21:28;;;;;;;12.27;6.97;;;;;;;28.05;60.42;98414.66;4997090;28;20223;-74
2021/08/13 04:23:56;;;;;;;13.13;7.63;;;;;;;28.65;58.39;98419.78;5007200;28;20211;-73
2021/08/13 04:26:23;;;;;;;8.80;6.33;;;;;;;27.92;61.70;98412.75;5015642;28;20219;-73
2021/08/13 04:28:50;;;;;;;11.10;6.83;;;;;;;28.58;59.29;98408.38;5010947;28;20214;-73
2021/08/13 04:31:18;;;;;;;11.10;6.73;;;;;;;28.55;59.50;98405.44;5013672;28;20229;-73
2021/08/13 04:33:46;;;;;;;10.97;6.20;;;;;;;28.69;58.63;98415.28;5014734;28;20207;-73
2021/08/13 04:36:13;;;;;;;10.17;5.67;;;;;;;28.70;58.45;98429.84;5021605;28;20301;-73
2021/08/13 04:38:41;;;;;;;10.73;6.27;;;;;;;28.71;58.14;98432.28;5008797;28;20207;-73
2021/08/13 04:41:09;;;;;;;7.77;5.93;;;;;;;28.69;58.74;98428.22;5004963;28;20234;-73
2021/08/13 04:43:36;;;;;;;9.70;6.17;;;;;;;28.82;58.36;98435.63;5003601;28;20207;-73
2021/08/13 04:46:04;;;;;;;11.27;6.40;;;;;;;28.89;57.99;98434.09;5013735;28;20223;-73
2021/08/13 04:48:31;;;;;;;11.07;6.23;;;;;;;28.87;58.21;98433.59;5009604;28;20218;-73
2021/08/13 04:50:59;;;;;;;11.90;6.40;;;;;;;29.00;57.46;98432.78;5005566;28;20224;-73
2021/08/13 04:53:27;;;;;;;8.83;6.33;;;;;;;28.78;58.63;98423.66;5009399;28;20215;-74
2021/08/13 04:55:54;;;;;;;9.53;6.60;;;;;;;28.82;58.15;98433.69;5009189;28;20215;-73
2021/08/13 04:58:21;;;;;;;8.13;6.60;;;;;;;28.76;58.92;98432.19;5006113;28;20246;-73
2021/08/13 05:00:49;;;;;;;13.43;6.40;;;;;;;28.75;60.03;98427.00;5007262;28;20614;-74
2021/08/13 05:03:16;;;;;;;10.53;6.23;;;;;;;28.78;59.49;98438.19;5004547;28;20315;-73
2021/08/13 05:05:44;;;;;;;12.43;7.13;;;;;;;27.93;64.20;98426.13;5007670;28;20255;-73
2021/08/13 05:08:12;;;;;;;9.00;6.53;;;;;;;27.81;63.71;98435.97;4998419;28;20218;-74
2021/08/13 05:10:39;;;;;;;12.17;7.73;;;;;;;28.40;61.44;98433.22;4998788;28;20234;-73
2021/08/13 05:13:07;;;;;;;11.87;7.17;;;;;;;27.97;64.28;98440.09;4994528;28;20226;-75
2021/08/13 05:15:34;;;;;;;9.87;7.57;;;;;;;28.47;61.65;98439.16;4990740;28;20196;-74
2021/08/13 05:18:01;;;;;;;10.30;6.53;;;;;;;-139.38;100.00;63230.50;4998736;28;20211;-74
2021/08/13 05:20:29;;;;;;;22.57;6.37;;;;;;;-139.38;100.00;63230.50;5006406;28;20215;-73
2021/08/13 05:22:56;;;;;;;9.93;6.37;;;;;;;29.07;58.65;98440.59;5006265;28;20294;-73
2021/08/13 05:25:25;;;;;;;10.53;7.33;;;;;;;28.74;59.72;98444.59;5007202;28;20228;-73
2021/08/13 05:27:53;;;;;;;14.73;6.73;;;;;;;29.31;57.41;98446.63;5011060;28;20207;-73
2021/08/13 05:30:20;;;;;;;12.30;6.57;;;;;;;29.36;57.96;98439.09;5007294;28;21736;-73
2021/08/13 05:32:49;;;;;;;11.47;6.50;;;;;;;29.30;56.93;98447.75;5001504;28;20206;-74
2021/08/13 05:35:16;;;;;;;12.73;7.27;;;;;;;29.64;55.42;98451.63;5003664;28;20230;-73
2021/08/13 05:37:44;;;;;;;12.27;6.83;;;;;;;29.73;55.48;98443.41;5002654;28;20207;-73
2021/08/13 05:40:12;;;;;;;11.00;7.03;;;;;;;29.80;55.35;98447.34;5003660;28;20223;-71
2021/08/13 05:42:41;;;;;;;14.60;6.80;;;;;;;29.80;55.57;98441.84;5003772;28;20235;-72
2021/08/13 05:45:09;;;;;;;11.10;6.90;;;;;;;29.81;55.74;98443.50;5016262;28;20234;-78
2021/08/13 05:47:38;;;;;;;13.90;7.30;;;;;;;29.35;57.41;98442.13;5011816;28;20199;-72
2021/08/13 05:50:07;;;;;;;15.87;7.50;;;;;;;29.21;58.07;98444.13;5014437;28;20211;-78
2021/08/13 05:52:34;;;;;;;12.87;6.70;;;;;;;29.47;57.49;98445.13;5009373;28;20697;-71
2021/08/13 05:55:01;;;;;;;16.23;6.43;;;;;;;29.76;56.61;98445.53;5019675;28;20226;-75
2021/08/13 05:57:28;;;;;;;16.63;7.20;;;;;;;30.05;55.69;98441.19;5028482;28;20258;-71
2021/08/13 05:59:57;;;;;;;12.80;6.93;;;;;;;30.11;55.29;98442.69;5027705;28;20206;-72
2021/08/13 06:02:24;;;;;;;18.53;7.43;;;;;;;30.26;54.65;98436.78;5015105;28;20231;-70
2021/08/13 06:04:52;;;;;;;19.20;7.50;;;;;;;30.53;53.56;98446.78;5023061;28;20326;-70
2021/08/13 06:07:19;;;;;;;15.33;6.67;;;;;;;30.78;52.93;98444.13;5028602;28;20574;-71
2021/08/13 06:09:46;;;;;;;20.47;8.17;;;;;;;30.59;53.07;98443.56;5008951;28;20589;-73
2021/08/13 06:12:14;;;;;;;21.20;7.37;;;;;;;30.88;52.36;98446.59;5026531;28;20239;-73
2021/08/13 06:14:41;;;;;;;16.33;7.20;;;;;;;31.17;51.33;98445.97;5028906;28;20212;-73
2021/08/13 06:17:09;;;;;;;17.73;6.83;;;;;;;31.30;50.14;98450.53;5026859;28;20674;-72
2021/08/13 06:19:37;;;;;;;13.23;6.63;;;;;;;31.35;51.26;98453.97;5012373;28;20222;-72
2021/08/13 06:22:04;;;;;;;11.90;6.50;;;;;;;31.38;50.22;98471.81;5024712;28;20229;-72
2021/08/13 06:24:32;;;;;;;17.67;7.18;;;;;;;30.96;50.61;98464.28;5031195;28;20700;-72
2021/08/13 06:26:59;;;;;;;11.88;7.18;;;;;;;30.65;51.27;98464.31;5023532;28;20675;-76
2021/08/13 06:29:26;;;;;;;14.75;7.57;;;;;;;31.07;50.15;98469.13;5030222;28;20217;-73
2021/08/13 06:31:54;;;;;;;12.95;7.30;;;;;;;30.59;50.99;98467.53;5013797;28;20265;-75
2021/08/13 06:34:22;;;;;;;14.80;8.10;;;;;;;30.42;53.20;98461.97;5013492;28;20206;-73
2021/08/13 06:36:50;;;;;;;11.60;7.50;;;;;;;30.52;52.07;98461.69;5021162;28;20290;-75
2021/08/13 06:39:17;;;;;;;11.43;6.60;;;;;;;31.05;50.71;98467.84;5029653;28;20230;-75
2021/08/13 06:41:45;;;;;;;10.85;7.53;;;;;;;31.83;48.48;98475.88;5015509;28;20214;-74
2021/08/13 06:44:14;;;;;;;13.50;6.63;;;;;;;30.91;50.46;98469.94;5023359;28;20203;-76
2021/08/13 06:46:41;;;;;;;12.40;7.10;;;;;;;30.76;50.49;98476.69;5013699;28;20715;-76
2021/08/13 06:49:09;;;;;;;11.10;6.22;;;;;;;31.27;49.46;98476.03;5021707;28;20218;-74
2021/08/13 06:51:37;;;;;;;12.35;6.72;;;;;;;32.18;45.94;98480.19;5006067;28;20245;-72
2021/08/13 06:54:05;;;;;;;11.50;6.63;;;;;;;32.61;44.66;98476.16;5016292;28;20207;-76
2021/08/13 06:56:32;;;;;;;12.02;6.93;;;;;;;31.89;45.20;98488.38;4999314;28;20211;-71
2021/08/13 06:58:59;;;;;;;9.68;6.55;;;;;;;31.36;48.38;98477.66;5002790;28;20678;-73
2021/08/13 07:01:27;;;;;;;10.55;6.47;;;;;;;32.40;44.63;98494.63;5007662;28;20250;-73
2021/08/13 07:03:54;;;;;;;10.77;6.45;;;;;;;32.45;44.83;98491.69;5020115;28;20260;-71
2021/08/13 07:06:21;;;;;;;10.77;7.00;;;;;;;33.13;42.91;98491.34;5007554;28;20318;-73
2021/08/13 07:08:50;;;;;;;10.90;6.50;;;;;;;33.58;42.67;98494.28;5014135;28;20593;-73
2021/08/13 07:11:17;;;;;;;9.05;6.20;;;;;;;33.17;42.88;98499.78;5007063;28;20235;-70
2021/08/13 07:13:45;;;;;;;9.80;6.40;;;;;;;30.73;50.23;98477.34;5025598;28;20200;-71
2021/08/13 07:16:12;;;;;;;11.13;7.00;;;;;;;31.85;48.32;98492.91;5023432;28;20206;-72
2021/08/13 07:18:39;;;;;;;10.48;6.75;;;;;;;32.27;46.09;98495.63;5022072;28;20203;-74
2021/08/13 07:21:06;;;;;;;11.35;6.75;;;;;;;32.64;43.72;98503.13;5012888;28;20230;-71
2021/08/13 07:23:34;;;;;;;9.73;7.22;;;;;;;32.57;44.39;98507.53;5013322;28;20211;-70
2021/08/13 07:26:02;;;;;;;16.70;7.15;;;;;;;33.32;42.41;98505.56;5013362;28;20585;-70
2021/08/13 07:28:30;;;;;;;8.18;6.47;;;;;;;32.74;43.81;98516.56;5008447;28;20211;-73
2021/08/13 07:30:57;;;;;;;11.30;7.03;;;;;;;31.98;45.95;98489.19;5019725;28;20223;-72
2021/08/13 07:33:24;;;;;;;9.38;6.43;;;;;;;33.07;43.26;98497.41;5005870;28;20732;-71
2021/08/13 07:35:52;;;;;;;9.30;6.38;;;;;;;32.77;44.22;98492.97;5010889;28;20199;-72
2021/08/13 07:38:19;;;;;;;9.77;6.93;;;;;;;32.85;43.78;98498.53;5015110;28;20212;-75
2021/08/13 07:40:46;;;;;;;15.95;6.85;;;;;;;33.88;40.52;98507.75;5020911;28;20667;-75
2021/08/13 07:43:15;;;;;;;8.90;6.20;;;;;;;34.02;40.52;98515.75;5010101;28;20200;-72
2021/08/13 07:45:42;;;;;;;10.98;6.75;;;;;;;33.95;40.51;98512.75;5010748;28;20222;-73
2021/08/13 07:48:10;;;;;;;14.55;7.00;;;;;;;31.61;45.81;98509.13;5000686;28;20591;-75
2021/08/13 07:50:37;;;;;;;12.63;6.75;;;;;;;33.74;40.69;98514.66;5002851;28;20575;-75
2021/08/13 07:53:04;;;;;;;12.07;7.47;;;;;;;32.88;43.28;98514.44;5002049;28;20205;-72
2021/08/13 07:55:32;;;;;;;10.07;6.97;;;;;;;33.05;42.92;98505.25;5014663;28;20223;-72
2021/08/13 07:57:59;;;;;;;10.38;7.03;;;;;;;33.98;40.07;98512.88;5005582;28;20215;-72
2021/08/13 08:00:28;;;;;;;10.45;7.03;;;;;;;34.21;40.10;98518.84;5012635;28;20196;-71
2021/08/13 08:02:55;;;;;;;15.50;7.38;;;;;;;32.92;43.98;98509.03;5003990;28;20573;-73
2021/08/13 08:05:22;;;;;;;14.50;7.43;;;;;;;34.48;40.33;98521.00;5014196;28;20331;-73
2021/08/13 08:07:50;;;;;;;10.23;7.07;;;;;;;34.39;40.28;98514.72;5013048;28;20218;-74
2021/08/13 08:10:17;;;;;;;11.38;7.35;;;;;;;34.69;39.32;98524.50;5028213;28;20211;-74
2021/08/13 08:12:45;;;;;;;9.98;6.63;;;;;;;33.96;40.54;98520.69;5008763;28;20221;-73
2021/08/13 08:15:12;;;;;;;12.32;6.80;;;;;;;34.48;39.48;98523.78;5005525;28;20205;-75
2021/08/13 08:17:41;;;;;;;10.07;7.30;;;;;;;34.74;39.67;98521.50;5012842;28;20649;-74
2021/08/13 08:20:10;;;;;;;13.35;7.15;;;;;;;34.07;40.07;98534.94;5005909;28;20214;-74
2021/08/13 08:22:37;;;;;;;11.70;7.00;;;;;;;33.47;42.87;98535.44;5009041;28;20237;-74
2021/08/13 08:25:06;;;;;;;11.10;6.75;;;;;;;35.16;38.96;98534.00;5010746;28;20234;-73
2021/08/13 08:27:33;;;;;;;15.23;7.75;;;;;;;33.56;41.46;98544.50;5004252;28;20211;-71
2021/08/13 08:30:01;;;;;;;14.02;6.57;;;;;;;34.36;39.20;98548.72;5001608;28;20234;-73
2021/08/13 08:32:29;;;;;;;9.45;6.28;;;;;;;35.00;37.80;98546.97;5018601;28;20219;-73
2021/08/13 08:34:57;;;;;;;12.10;6.63;;;;;;;34.21;39.53;98541.00;5007176;28;20231;-73
2021/08/13 08:37:24;;;;;;;9.85;6.82;;;;;;;34.69;38.79;98541.13;5013321;28;20206;-73
2021/08/13 08:39:52;;;;;;;11.77;7.10;;;;;;;34.00;40.33;98551.31;5000327;28;20218;-73
2021/08/13 08:42:21;;;;;;;14.77;6.70;;;;;;;34.07;39.97;98552.41;5010517;28;20234;-74
2021/08/13 08:44:49;;;;;;;9.18;6.47;;;;;;;34.41;39.41;98554.03;4998805;28;20303;-72
2021/08/13 08:47:17;;;;;;;11.75;6.82;;;;;;;32.87;43.37;98539.66;5002797;28;20895;-72
2021/08/13 08:49:45;;;;;;;12.75;6.90;;;;;;;34.74;39.79;98546.47;5011185;28;20211;-74
2021/08/13 08:52:14;;;;;;;11.32;7.15;;;;;;;34.07;40.95;98541.31;5011666;28;20230;-74
2021/08/13 08:54:43;;;;;;;12.02;6.85;;;;;;;35.18;37.59;98543.59;5009122;28;20204;-74
2021/08/13 08:57:10;;;;;;;12.10;6.82;;;;;;;33.13;42.31;98543.91;4998758;28;20749;-74
2021/08/13 08:59:37;;;;;;;12.18;7.20;;;;;;;34.42;40.42;98534.25;5005588;28;20211;-74
2021/08/13 09:02:05;;;;;;;10.15;6.82;;;;;;;34.93;38.86;98541.19;5005365;28;20238;-74
2021/08/13 09:04:32;;;;;;;8.95;6.97;;;;;;;34.43;39.08;98551.72;5007286;28;20646;-74
2021/08/13 09:06:59;;;;;;;9.65;6.85;;;;;;;34.91;38.62;98540.75;5016632;28;20246;-74
2021/08/13 09:09:28;;;;;;;13.90;7.30;;;;;;;35.87;36.45;98556.50;5020921;28;20211;-74
2021/08/13 09:11:57;;;;;;;12.55;7.18;;;;;;;35.00;37.99;98555.28;5005231;28;20245;-74
2021/08/13 09:14:24;;;;;;;9.80;6.13;;;;;;;35.37;37.43;98553.34;5005362;28;20640;-74
2021/08/13 09:17:04;;;;;;;10.63;6.45;;;;;;;37.20;33.67;98571.34;5020115;28;20206;-74
2021/08/13 09:19:44;;;;;;;11.55;6.45;;;;;;;36.53;34.74;98558.44;5014159;28;20605;-74
2021/08/13 09:22:19;;;;;;;8.70;6.10;;;;;;;36.58;34.83;98555.38;5025569;28;20293;-74
2021/08/13 09:24:49;;;;;;;10.85;6.60;;;;;;;36.99;35.04;98557.69;5017006;28;20621;-74
2021/08/13 09:27:27;;;;;;;8.95;6.18;;;;;;;36.70;34.57;98552.56;5021356;28;20226;-73
2021/08/13 09:30:25;;;;;;;10.82;6.30;;;;;;;37.59;33.37;98559.97;5003042;28;20618;-74
2021/08/13 09:32:57;;;;;;;218.32;17.90;;;;;;;35.81;36.92;98552.38;4983789;28;20202;-74
2021/08/13 09:35:32;;;;;;;155.35;16.02;;;;;;;35.97;35.59;98567.13;5029400;28;20214;-73
2021/08/13 09:38:16;;;;;;;22.95;7.43;;;;;;;34.59;38.79;98547.13;5023590;28;20211;-74
2021/08/13 09:40:50;;;;;;;15.75;7.72;;;;;;;35.18;37.93;98543.59;5024137;28;20273;-75
2021/08/13 09:43:18;;;;;;;21.75;7.60;;;;;;;34.25;39.97;98553.81;5005188;28;20696;-74
2021/08/13 09:46:07;;;;;;;33.50;9.23;;;;;;;35.85;37.14;98551.28;5002894;28;20266;-75
2021/08/13 09:48:40;;;;;;;18.58;7.97;;;;;;;35.63;37.26;98556.53;5016000;28;20212;-74
2021/08/13 09:51:44;;;;;;;14.05;7.25;;;;;;;35.51;38.05;98551.03;5021099;28;20223;-75
2021/08/13 09:54:16;;;;;;;14.10;6.82;;;;;;;36.65;35.82;98561.16;5027000;28;20217;-74
2021/08/13 09:56:50;;;;;;;11.60;6.63;;;;;;;35.04;38.27;98544.34;5017123;28;20199;-74
2021/08/13 09:59:25;;;;;;;17.10;7.57;;;;;;;35.63;37.15;98551.81;5009672;28;20207;-74
2021/08/13 10:02:07;;;;;;;11.98;7.10;;;;;;;37.22;35.03;98547.53;5007125;28;20231;-74
2021/08/13 10:04:38;;;;;;;12.93;6.68;;;;;;;36.35;35.38;98545.19;5011797;28;20811;-74
2021/08/13 10:07:08;;;;;;;11.35;6.65;;;;;;;36.95;34.55;98551.22;5005457;28;20318;-74
2021/08/13 10:09:35;;;;;;;8.55;6.25;;;;;;;36.33;36.17;98544.75;5018902;28;20202;-76
2021/08/13 10:12:06;;;;;;;10.43;6.78;;;;;;;36.17;36.41;98550.22;5017189;28;20694;-76
2021/08/13 10:14:35;;;;;;;7.68;5.82;;;;;;;36.17;36.54;98550.22;5015897;28;20207;-76
2021/08/13 10:17:17;;;;;;;10.32;6.82;;;;;;;37.41;34.60;98552.34;5018134;28;20209;-76
2021/08/13 10:19:46;;;;;;;10.18;6.20;;;;;;;34.98;38.42;98552.06;5016307;28;20207;-74
2021/08/13 10:22:14;;;;;;;9.48;6.40;;;;;;;35.92;37.98;98540.38;5014515;28;20262;-73
2021/08/13 10:24:43;;;;;;;11.77;6.68;;;;;;;35.64;37.22;98545.09;5021483;28;20210;-73
2021/08/13 10:27:13;;;;;;;8.63;6.20;;;;;;;35.72;37.39;98546.97;5030313;28;20230;-73
2021/08/13 10:29:40;;;;;;;10.15;6.68;;;;;;;37.05;34.69;98547.06;5018094;28;20667;-72
2021/08/13 10:32:08;;;;;;;9.18;6.15;;;;;;;34.98;39.04;98538.19;5022067;28;20232;-76
2021/08/13 10:34:36;;;;;;;8.43;6.60;;;;;;;36.52;36.80;98540.13;5020112;28;20222;-72
2021/08/13 10:37:09;;;;;;;9.48;5.70;;;;;;;37.66;34.21;98551.78;5008763;28;20207;-76
2021/08/13 10:39:38;;;;;;;9.63;5.95;;;;;;;38.22;33.05;98563.31;5015208;28;20222;-76
2021/08/13 10:42:06;;;;;;;10.90;6.00;;;;;;;38.48;32.54;98555.09;5017494;28;20229;-76
2021/08/13 10:44:43;;;;;;;10.13;6.10;;;;;;;37.25;34.15;98563.53;5022008;28;20215;-76
2021/08/13 10:47:13;;;;;;;12.05;6.75;;;;;;;34.90;39.69;98550.19;5022558;28;20230;-75
2021/08/13 10:49:43;;;;;;;11.80;6.38;;;;;;;36.44;36.42;98555.00;5012021;28;20198;-76
2021/08/13 10:52:11;;;;;;;11.77;6.30;;;;;;;37.05;34.54;98556.25;5013518;28;20227;-76
2021/08/13 10:54:40;;;;;;;10.32;6.22;;;;;;;36.65;36.01;98543.66;5007313;28;20214;-74
2021/08/13 10:57:08;;;;;;;11.27;6.50;;;;;;;36.69;36.59;98536.22;5003862;28;20618;-75
2021/08/13 10:59:56;;;;;;;9.60;6.15;;;;;;;37.39;34.41;98537.97;5014249;28;20577;-76
2021/08/13 11:02:24;;;;;;;12.60;6.32;;;;;;;37.25;34.60;98540.44;5006258;28;20227;-75
2021/08/13 11:04:52;;;;;;;10.73;6.20;;;;;;;37.60;33.92;98538.50;5012923;28;20200;-80
2021/08/13 11:07:56;;;;;;;8.45;5.93;;;;;;;37.14;35.86;98531.84;5006868;28;20230;-77
2021/08/13 11:10:55;;;;;;;11.98;6.53;;;;;;;36.95;35.21;98544.84;5009670;28;20214;-75
2021/08/13 11:13:23;;;;;;;10.70;6.55;;;;;;;37.77;34.21;98546.41;5007506;28;20215;-81
2021/08/13 11:15:52;;;;;;;11.32;6.47;;;;;;;37.55;33.75;98547.09;5013742;28;20260;-75
2021/08/13 11:18:34;;;;;;;10.98;6.88;;;;;;;37.89;33.45;98540.72;5026940;28;20281;-79
2021/08/13 11:21:02;;;;;;;8.70;6.03;;;;;;;38.26;34.25;98539.09;5005814;28;20227;-82